sensor_id;sensor_type;location;lat;lon;timestamp;temperature;humidity
70154;DHT22;57519;51.494;-2.626;2022-07-23T00:01:17;14.75;88.08
70154;DHT22;57519;51.494;-2.626;2022-07-23T00:03:43;14.67;88.60
70154;DHT22;57519;51.494;-2.626;2022-07-23T00:06:08;14.65;88.75
70154;DHT22;57519;51.494;-2.626;2022-07-23T00:08:34;14.53;88.64
70154;DHT22;57519;51.494;-2.626;2022-07-23T00:10:59;14.54;88.93
70154;DHT22;57519;51.494;-2.626;2022-07-23T00:13:26;14.45;88.50
70154;DHT22;57519;51.494;-2.626;2022-07-23T00:15:51;14.44;88.52
70154;DHT22;57519;51.494;-2.626;2022-07-23T00:18:17;14.41;88.60
70154;DHT22;57519;51.494;-2.626;2022-07-23T00:20:42;14.36;88.52
70154;DHT22;57519;51.494;-2.626;2022-07-23T00:23:08;14.32;88.64
70154;DHT22;57519;51.494;-2.626;2022-07-23T00:25:33;14.30;89.06
70154;DHT22;57519;51.494;-2.626;2022-07-23T00:27:59;14.29;88.73
70154;DHT22;57519;51.494;-2.626;2022-07-23T00:30:25;14.32;89.16
70154;DHT22;57519;51.494;-2.626;2022-07-23T00:32:56;14.24;88.83
70154;DHT22;57519;51.494;-2.626;2022-07-23T00:35:24;14.14;88.71
70154;DHT22;57519;51.494;-2.626;2022-07-23T00:37:49;14.12;88.80
70154;DHT22;57519;51.494;-2.626;2022-07-23T00:40:15;14.02;89.12
70154;DHT22;57519;51.494;-2.626;2022-07-23T00:42:41;14.10;89.38
70154;DHT22;57519;51.494;-2.626;2022-07-23T00:45:07;13.99;89.26
70154;DHT22;57519;51.494;-2.626;2022-07-23T00:47:33;14.03;89.26
70154;DHT22;57519;51.494;-2.626;2022-07-23T00:49:59;14.06;89.00
70154;DHT22;57519;51.494;-2.626;2022-07-23T00:52:24;13.99;89.10
70154;DHT22;57519;51.494;-2.626;2022-07-23T00:54:50;13.96;88.93
70154;DHT22;57519;51.494;-2.626;2022-07-23T00:57:16;13.96;88.94
70154;DHT22;57519;51.494;-2.626;2022-07-23T00:59:43;13.92;89.31
70154;DHT22;57519;51.494;-2.626;2022-07-23T01:02:08;13.89;88.97
70154;DHT22;57519;51.494;-2.626;2022-07-23T01:04:34;13.79;89.00
70154;DHT22;57519;51.494;-2.626;2022-07-23T01:06:59;13.78;89.57
70154;DHT22;57519;51.494;-2.626;2022-07-23T01:09:26;13.79;89.67
70154;DHT22;57519;51.494;-2.626;2022-07-23T01:11:51;13.75;89.35
70154;DHT22;57519;51.494;-2.626;2022-07-23T01:14:18;13.71;89.94
70154;DHT22;57519;51.494;-2.626;2022-07-23T01:16:46;13.72;90.04
70154;DHT22;57519;51.494;-2.626;2022-07-23T01:19:12;13.75;90.06
70154;DHT22;57519;51.494;-2.626;2022-07-23T01:21:48;13.76;89.71
70154;DHT22;57519;51.494;-2.626;2022-07-23T01:24:14;13.75;89.50
70154;DHT22;57519;51.494;-2.626;2022-07-23T01:26:43;13.76;89.85
70154;DHT22;57519;51.494;-2.626;2022-07-23T01:29:09;13.78;90.01
70154;DHT22;57519;51.494;-2.626;2022-07-23T01:31:34;13.71;89.44
70154;DHT22;57519;51.494;-2.626;2022-07-23T01:34:00;13.59;89.03
70154;DHT22;57519;51.494;-2.626;2022-07-23T01:36:26;13.61;89.24
70154;DHT22;57519;51.494;-2.626;2022-07-23T01:38:51;13.48;89.30
70154;DHT22;57519;51.494;-2.626;2022-07-23T01:41:17;13.40;89.31
70154;DHT22;57519;51.494;-2.626;2022-07-23T01:43:43;13.40;89.65
70154;DHT22;57519;51.494;-2.626;2022-07-23T01:46:09;13.44;89.63
70154;DHT22;57519;51.494;-2.626;2022-07-23T01:48:34;13.34;88.90
70154;DHT22;57519;51.494;-2.626;2022-07-23T01:51:00;13.33;89.07
70154;DHT22;57519;51.494;-2.626;2022-07-23T01:53:25;13.26;88.82
70154;DHT22;57519;51.494;-2.626;2022-07-23T01:55:51;13.24;89.28
70154;DHT22;57519;51.494;-2.626;2022-07-23T01:58:16;13.24;89.38
70154;DHT22;57519;51.494;-2.626;2022-07-23T02:00:41;13.21;89.13
70154;DHT22;57519;51.494;-2.626;2022-07-23T02:03:07;13.20;89.22
70154;DHT22;57519;51.494;-2.626;2022-07-23T02:05:32;13.14;89.16
70154;DHT22;57519;51.494;-2.626;2022-07-23T02:07:59;13.11;89.30
70154;DHT22;57519;51.494;-2.626;2022-07-23T02:10:25;13.13;89.40
70154;DHT22;57519;51.494;-2.626;2022-07-23T02:12:51;13.10;89.38
70154;DHT22;57519;51.494;-2.626;2022-07-23T02:15:16;13.06;89.39
70154;DHT22;57519;51.494;-2.626;2022-07-23T02:17:41;13.00;89.31
70154;DHT22;57519;51.494;-2.626;2022-07-23T02:20:08;13.02;89.30
70154;DHT22;57519;51.494;-2.626;2022-07-23T02:22:34;12.96;89.13
70154;DHT22;57519;51.494;-2.626;2022-07-23T02:25:00;12.92;89.38
70154;DHT22;57519;51.494;-2.626;2022-07-23T02:27:26;12.97;89.73
70154;DHT22;57519;51.494;-2.626;2022-07-23T02:29:51;12.96;89.83
70154;DHT22;57519;51.494;-2.626;2022-07-23T02:32:16;12.95;89.74
70154;DHT22;57519;51.494;-2.626;2022-07-23T02:34:42;12.97;89.75
70154;DHT22;57519;51.494;-2.626;2022-07-23T02:37:10;12.95;89.51
70154;DHT22;57519;51.494;-2.626;2022-07-23T02:39:36;12.89;89.42
70154;DHT22;57519;51.494;-2.626;2022-07-23T02:42:01;12.97;89.67
70154;DHT22;57519;51.494;-2.626;2022-07-23T02:44:27;12.93;89.61
70154;DHT22;57519;51.494;-2.626;2022-07-23T02:46:52;12.96;89.63
70154;DHT22;57519;51.494;-2.626;2022-07-23T02:49:18;12.90;89.19
70154;DHT22;57519;51.494;-2.626;2022-07-23T02:51:43;12.83;89.60
70154;DHT22;57519;51.494;-2.626;2022-07-23T02:54:09;12.88;90.03
70154;DHT22;57519;51.494;-2.626;2022-07-23T02:56:34;12.86;89.44
70154;DHT22;57519;51.494;-2.626;2022-07-23T02:58:59;12.89;89.73
70154;DHT22;57519;51.494;-2.626;2022-07-23T03:01:25;12.83;89.56
70154;DHT22;57519;51.494;-2.626;2022-07-23T03:03:51;12.82;89.57
70154;DHT22;57519;51.494;-2.626;2022-07-23T03:06:16;12.76;89.40
70154;DHT22;57519;51.494;-2.626;2022-07-23T03:08:42;12.73;89.44
70154;DHT22;57519;51.494;-2.626;2022-07-23T03:11:07;12.78;89.98
70154;DHT22;57519;51.494;-2.626;2022-07-23T03:13:36;12.80;89.22
70154;DHT22;57519;51.494;-2.626;2022-07-23T03:16:02;12.88;89.19
70154;DHT22;57519;51.494;-2.626;2022-07-23T03:18:28;13.00;89.40
70154;DHT22;57519;51.494;-2.626;2022-07-23T03:20:53;12.96;89.46
70154;DHT22;57519;51.494;-2.626;2022-07-23T03:23:19;12.89;88.87
70154;DHT22;57519;51.494;-2.626;2022-07-23T03:25:44;12.90;89.39
70154;DHT22;57519;51.494;-2.626;2022-07-23T03:28:12;12.88;89.25
70154;DHT22;57519;51.494;-2.626;2022-07-23T03:30:37;12.89;89.42
70154;DHT22;57519;51.494;-2.626;2022-07-23T03:33:02;12.79;88.98
70154;DHT22;57519;51.494;-2.626;2022-07-23T03:35:28;12.75;88.96
70154;DHT22;57519;51.494;-2.626;2022-07-23T03:37:53;12.75;89.66
70154;DHT22;57519;51.494;-2.626;2022-07-23T03:40:19;12.72;89.25
70154;DHT22;57519;51.494;-2.626;2022-07-23T03:42:44;12.68;89.09
70154;DHT22;57519;51.494;-2.626;2022-07-23T03:45:11;12.58;88.83
70154;DHT22;57519;51.494;-2.626;2022-07-23T03:47:36;12.58;88.93
70154;DHT22;57519;51.494;-2.626;2022-07-23T03:50:03;12.56;88.81
70154;DHT22;57519;51.494;-2.626;2022-07-23T03:52:28;12.53;88.65
70154;DHT22;57519;51.494;-2.626;2022-07-23T03:54:53;12.49;88.98
70154;DHT22;57519;51.494;-2.626;2022-07-23T03:57:19;12.41;88.81
70154;DHT22;57519;51.494;-2.626;2022-07-23T03:59:44;12.40;88.89
70154;DHT22;57519;51.494;-2.626;2022-07-23T04:02:10;12.51;89.49
70154;DHT22;57519;51.494;-2.626;2022-07-23T04:04:35;12.42;88.60
70154;DHT22;57519;51.494;-2.626;2022-07-23T04:07:00;12.40;88.62
70154;DHT22;57519;51.494;-2.626;2022-07-23T04:09:26;12.38;89.03
70154;DHT22;57519;51.494;-2.626;2022-07-23T04:11:52;12.32;89.01
70154;DHT22;57519;51.494;-2.626;2022-07-23T04:14:17;12.30;89.01
70154;DHT22;57519;51.494;-2.626;2022-07-23T04:16:42;12.35;89.02
70154;DHT22;57519;51.494;-2.626;2022-07-23T04:19:08;12.37;88.88
70154;DHT22;57519;51.494;-2.626;2022-07-23T04:21:33;12.35;88.87
70154;DHT22;57519;51.494;-2.626;2022-07-23T04:23:59;12.37;89.45
70154;DHT22;57519;51.494;-2.626;2022-07-23T04:26:24;12.40;89.44
70154;DHT22;57519;51.494;-2.626;2022-07-23T04:28:49;12.44;89.34
70154;DHT22;57519;51.494;-2.626;2022-07-23T04:31:15;12.42;89.43
70154;DHT22;57519;51.494;-2.626;2022-07-23T04:33:40;12.46;89.42
70154;DHT22;57519;51.494;-2.626;2022-07-23T04:36:06;12.56;89.74
70154;DHT22;57519;51.494;-2.626;2022-07-23T04:38:31;12.69;89.78
70154;DHT22;57519;51.494;-2.626;2022-07-23T04:40:58;12.76;89.27
70154;DHT22;57519;51.494;-2.626;2022-07-23T04:43:23;12.80;88.84
70154;DHT22;57519;51.494;-2.626;2022-07-23T04:45:48;12.79;88.91
70154;DHT22;57519;51.494;-2.626;2022-07-23T04:48:14;12.88;89.12
70154;DHT22;57519;51.494;-2.626;2022-07-23T04:50:39;12.90;89.05
70154;DHT22;57519;51.494;-2.626;2022-07-23T04:53:05;13.00;88.95
70154;DHT22;57519;51.494;-2.626;2022-07-23T04:55:30;13.04;89.16
70154;DHT22;57519;51.494;-2.626;2022-07-23T04:57:56;13.11;89.30
70154;DHT22;57519;51.494;-2.626;2022-07-23T05:00:21;13.36;89.42
70154;DHT22;57519;51.494;-2.626;2022-07-23T05:02:47;13.38;89.07
70154;DHT22;57519;51.494;-2.626;2022-07-23T05:05:12;13.46;88.78
70154;DHT22;57519;51.494;-2.626;2022-07-23T05:07:38;13.44;88.74
70154;DHT22;57519;51.494;-2.626;2022-07-23T05:10:04;13.48;88.82
70154;DHT22;57519;51.494;-2.626;2022-07-23T05:12:29;13.59;88.92
70154;DHT22;57519;51.494;-2.626;2022-07-23T05:14:55;13.76;89.30
70154;DHT22;57519;51.494;-2.626;2022-07-23T05:17:20;13.98;88.46
70154;DHT22;57519;51.494;-2.626;2022-07-23T05:19:45;14.09;88.61
70154;DHT22;57519;51.494;-2.626;2022-07-23T05:22:11;14.19;88.51
70154;DHT22;57519;51.494;-2.626;2022-07-23T05:24:36;14.17;87.82
70154;DHT22;57519;51.494;-2.626;2022-07-23T05:27:02;14.13;87.96
70154;DHT22;57519;51.494;-2.626;2022-07-23T05:29:27;14.20;88.17
70154;DHT22;57519;51.494;-2.626;2022-07-23T05:31:52;14.27;88.14
70154;DHT22;57519;51.494;-2.626;2022-07-23T05:34:18;14.41;87.80
70154;DHT22;57519;51.494;-2.626;2022-07-23T05:36:43;14.56;87.58
70154;DHT22;57519;51.494;-2.626;2022-07-23T05:39:09;14.64;87.59
70154;DHT22;57519;51.494;-2.626;2022-07-23T05:41:34;14.72;87.65
70154;DHT22;57519;51.494;-2.626;2022-07-23T05:44:00;14.87;87.29
70154;DHT22;57519;51.494;-2.626;2022-07-23T05:46:25;15.18;86.68
70154;DHT22;57519;51.494;-2.626;2022-07-23T05:48:50;15.39;85.29
70154;DHT22;57519;51.494;-2.626;2022-07-23T05:51:23;15.47;85.25
70154;DHT22;57519;51.494;-2.626;2022-07-23T05:53:49;15.47;84.90
70154;DHT22;57519;51.494;-2.626;2022-07-23T05:56:15;15.57;84.70
70154;DHT22;57519;51.494;-2.626;2022-07-23T05:58:40;15.74;85.05
70154;DHT22;57519;51.494;-2.626;2022-07-23T06:01:05;15.90;84.42
70154;DHT22;57519;51.494;-2.626;2022-07-23T06:03:31;16.02;83.86
70154;DHT22;57519;51.494;-2.626;2022-07-23T06:05:56;16.09;82.77
70154;DHT22;57519;51.494;-2.626;2022-07-23T06:08:22;16.14;84.30
70154;DHT22;57519;51.494;-2.626;2022-07-23T06:10:47;16.09;83.82
70154;DHT22;57519;51.494;-2.626;2022-07-23T06:13:13;16.11;84.20
70154;DHT22;57519;51.494;-2.626;2022-07-23T06:15:38;16.12;84.40
70154;DHT22;57519;51.494;-2.626;2022-07-23T06:18:04;16.16;83.95
70154;DHT22;57519;51.494;-2.626;2022-07-23T06:20:29;16.25;84.61
70154;DHT22;57519;51.494;-2.626;2022-07-23T06:22:54;16.30;83.80
70154;DHT22;57519;51.494;-2.626;2022-07-23T06:25:20;16.22;83.34
70154;DHT22;57519;51.494;-2.626;2022-07-23T06:27:46;16.14;83.93
70154;DHT22;57519;51.494;-2.626;2022-07-23T06:30:12;16.18;84.41
70154;DHT22;57519;51.494;-2.626;2022-07-23T06:32:38;16.18;84.76
70154;DHT22;57519;51.494;-2.626;2022-07-23T06:35:04;16.19;83.54
70154;DHT22;57519;51.494;-2.626;2022-07-23T06:37:29;16.22;84.28
70154;DHT22;57519;51.494;-2.626;2022-07-23T06:39:55;16.43;82.68
70154;DHT22;57519;51.494;-2.626;2022-07-23T06:42:21;16.66;82.22
70154;DHT22;57519;51.494;-2.626;2022-07-23T06:44:46;16.92;81.59
70154;DHT22;57519;51.494;-2.626;2022-07-23T06:47:11;17.21;80.34
70154;DHT22;57519;51.494;-2.626;2022-07-23T06:49:37;17.43;79.09
70154;DHT22;57519;51.494;-2.626;2022-07-23T06:52:02;17.57;78.34
70154;DHT22;57519;51.494;-2.626;2022-07-23T06:54:28;17.66;78.73
70154;DHT22;57519;51.494;-2.626;2022-07-23T06:56:53;17.53;78.01
70154;DHT22;57519;51.494;-2.626;2022-07-23T06:59:19;17.48;78.45
70154;DHT22;57519;51.494;-2.626;2022-07-23T07:01:44;17.42;78.38
70154;DHT22;57519;51.494;-2.626;2022-07-23T07:04:10;17.57;78.55
70154;DHT22;57519;51.494;-2.626;2022-07-23T07:06:35;17.59;77.80
70154;DHT22;57519;51.494;-2.626;2022-07-23T07:09:01;17.75;78.12
70154;DHT22;57519;51.494;-2.626;2022-07-23T07:11:26;17.82;78.27
70154;DHT22;57519;51.494;-2.626;2022-07-23T07:13:52;17.97;76.94
70154;DHT22;57519;51.494;-2.626;2022-07-23T07:16:18;18.18;77.06
70154;DHT22;57519;51.494;-2.626;2022-07-23T07:18:43;18.42;76.18
70154;DHT22;57519;51.494;-2.626;2022-07-23T07:21:09;18.42;76.06
70154;DHT22;57519;51.494;-2.626;2022-07-23T07:23:34;18.35;76.22
70154;DHT22;57519;51.494;-2.626;2022-07-23T07:25:59;18.27;76.34
70154;DHT22;57519;51.494;-2.626;2022-07-23T07:28:25;18.28;76.82
70154;DHT22;57519;51.494;-2.626;2022-07-23T07:30:50;18.42;76.72
70154;DHT22;57519;51.494;-2.626;2022-07-23T07:33:16;18.48;75.92
70154;DHT22;57519;51.494;-2.626;2022-07-23T07:35:41;18.56;75.77
70154;DHT22;57519;51.494;-2.626;2022-07-23T07:38:07;18.44;75.85
70154;DHT22;57519;51.494;-2.626;2022-07-23T07:40:32;18.53;75.98
70154;DHT22;57519;51.494;-2.626;2022-07-23T07:42:58;18.65;76.11
70154;DHT22;57519;51.494;-2.626;2022-07-23T07:45:24;18.79;75.36
70154;DHT22;57519;51.494;-2.626;2022-07-23T07:47:51;18.93;75.16
70154;DHT22;57519;51.494;-2.626;2022-07-23T07:50:16;18.96;73.75
70154;DHT22;57519;51.494;-2.626;2022-07-23T07:52:42;18.93;74.05
70154;DHT22;57519;51.494;-2.626;2022-07-23T07:55:09;19.04;74.89
70154;DHT22;57519;51.494;-2.626;2022-07-23T07:57:35;19.07;73.87
70154;DHT22;57519;51.494;-2.626;2022-07-23T08:00:01;19.28;73.05
70154;DHT22;57519;51.494;-2.626;2022-07-23T08:02:27;19.64;71.87
70154;DHT22;57519;51.494;-2.626;2022-07-23T08:04:52;20.14;70.84
70154;DHT22;57519;51.494;-2.626;2022-07-23T08:07:18;20.45;69.50
70154;DHT22;57519;51.494;-2.626;2022-07-23T08:09:44;20.75;68.12
70154;DHT22;57519;51.494;-2.626;2022-07-23T08:12:09;20.70;67.66
70154;DHT22;57519;51.494;-2.626;2022-07-23T08:14:35;20.51;67.75
70154;DHT22;57519;51.494;-2.626;2022-07-23T08:17:00;20.50;68.07
70154;DHT22;57519;51.494;-2.626;2022-07-23T08:19:25;20.52;68.63
70154;DHT22;57519;51.494;-2.626;2022-07-23T08:21:51;20.54;67.38
70154;DHT22;57519;51.494;-2.626;2022-07-23T08:24:16;20.63;66.75
70154;DHT22;57519;51.494;-2.626;2022-07-23T08:26:42;21.10;66.09
70154;DHT22;57519;51.494;-2.626;2022-07-23T08:29:07;21.45;64.37
70154;DHT22;57519;51.494;-2.626;2022-07-23T08:31:33;22.05;63.46
70154;DHT22;57519;51.494;-2.626;2022-07-23T08:33:59;22.22;62.78
70154;DHT22;57519;51.494;-2.626;2022-07-23T08:36:25;22.23;62.24
70154;DHT22;57519;51.494;-2.626;2022-07-23T08:38:53;21.95;62.52
70154;DHT22;57519;51.494;-2.626;2022-07-23T08:41:19;21.60;63.67
70154;DHT22;57519;51.494;-2.626;2022-07-23T08:43:45;21.20;63.87
70154;DHT22;57519;51.494;-2.626;2022-07-23T08:46:11;20.68;65.36
70154;DHT22;57519;51.494;-2.626;2022-07-23T08:48:38;20.57;66.00
70154;DHT22;57519;51.494;-2.626;2022-07-23T08:51:05;20.68;66.52
70154;DHT22;57519;51.494;-2.626;2022-07-23T08:53:32;20.80;66.35
70154;DHT22;57519;51.494;-2.626;2022-07-23T08:56:00;20.92;65.27
70154;DHT22;57519;51.494;-2.626;2022-07-23T08:58:29;21.30;66.56
70154;DHT22;57519;51.494;-2.626;2022-07-23T09:00:55;21.54;64.80
70154;DHT22;57519;51.494;-2.626;2022-07-23T09:03:29;21.61;64.79
70154;DHT22;57519;51.494;-2.626;2022-07-23T09:05:57;21.19;66.42
70154;DHT22;57519;51.494;-2.626;2022-07-23T09:08:24;20.78;67.30
70154;DHT22;57519;51.494;-2.626;2022-07-23T09:11:02;20.58;68.05
70154;DHT22;57519;51.494;-2.626;2022-07-23T09:14:14;21.06;66.31
70154;DHT22;57519;51.494;-2.626;2022-07-23T09:16:33;21.25;65.77
70154;DHT22;57519;51.494;-2.626;2022-07-23T09:19:01;21.30;66.12
70154;DHT22;57519;51.494;-2.626;2022-07-23T09:21:28;21.12;66.45
70154;DHT22;57519;51.494;-2.626;2022-07-23T09:26:30;20.91;67.60
70154;DHT22;57519;51.494;-2.626;2022-07-23T09:31:58;20.82;67.61
70154;DHT22;57519;51.494;-2.626;2022-07-23T09:36:56;21.25;67.24
70154;DHT22;57519;51.494;-2.626;2022-07-23T09:39:29;21.54;66.01
70154;DHT22;57519;51.494;-2.626;2022-07-23T09:41:55;21.71;66.34
70154;DHT22;57519;51.494;-2.626;2022-07-23T09:44:21;21.73;65.68
70154;DHT22;57519;51.494;-2.626;2022-07-23T09:46:48;22.00;65.06
70154;DHT22;57519;51.494;-2.626;2022-07-23T09:49:19;22.42;64.12
70154;DHT22;57519;51.494;-2.626;2022-07-23T09:51:54;22.52;64.25
70154;DHT22;57519;51.494;-2.626;2022-07-23T09:54:25;22.64;64.86
70154;DHT22;57519;51.494;-2.626;2022-07-23T09:56:55;22.60;64.13
70154;DHT22;57519;51.494;-2.626;2022-07-23T09:59:30;22.79;63.41
70154;DHT22;57519;51.494;-2.626;2022-07-23T10:01:58;22.64;63.67
70154;DHT22;57519;51.494;-2.626;2022-07-23T10:04:26;22.45;63.72
70154;DHT22;57519;51.494;-2.626;2022-07-23T10:06:58;22.35;64.25
70154;DHT22;57519;51.494;-2.626;2022-07-23T10:09:27;22.21;64.66
70154;DHT22;57519;51.494;-2.626;2022-07-23T10:11:55;22.28;64.63
70154;DHT22;57519;51.494;-2.626;2022-07-23T10:14:26;22.16;65.15
70154;DHT22;57519;51.494;-2.626;2022-07-23T10:16:52;22.00;64.95
70154;DHT22;57519;51.494;-2.626;2022-07-23T10:19:18;22.11;65.55
70154;DHT22;57519;51.494;-2.626;2022-07-23T10:21:50;22.23;64.89
70154;DHT22;57519;51.494;-2.626;2022-07-23T10:26:58;22.02;65.45
70154;DHT22;57519;51.494;-2.626;2022-07-23T10:38:11;21.90;64.73
70154;DHT22;57519;51.494;-2.626;2022-07-23T10:40:53;21.98;64.79
70154;DHT22;57519;51.494;-2.626;2022-07-23T10:43:20;22.08;64.98
70154;DHT22;57519;51.494;-2.626;2022-07-23T10:45:45;22.48;64.53
70154;DHT22;57519;51.494;-2.626;2022-07-23T10:48:18;22.93;63.02
70154;DHT22;57519;51.494;-2.626;2022-07-23T10:51:10;23.19;62.93
70154;DHT22;57519;51.494;-2.626;2022-07-23T10:56:17;22.39;64.93
70154;DHT22;57519;51.494;-2.626;2022-07-23T10:58:47;22.43;65.37
70154;DHT22;57519;51.494;-2.626;2022-07-23T11:01:38;22.56;65.23
70154;DHT22;57519;51.494;-2.626;2022-07-23T11:04:06;22.55;64.77
70154;DHT22;57519;51.494;-2.626;2022-07-23T11:09:47;22.57;65.18
70154;DHT22;57519;51.494;-2.626;2022-07-23T11:17:28;22.23;66.85
70154;DHT22;57519;51.494;-2.626;2022-07-23T11:22:39;21.90;67.36
70154;DHT22;57519;51.494;-2.626;2022-07-23T11:25:05;21.94;67.22
70154;DHT22;57519;51.494;-2.626;2022-07-23T11:27:41;22.33;66.55
70154;DHT22;57519;51.494;-2.626;2022-07-23T11:30:09;22.45;66.09
70154;DHT22;57519;51.494;-2.626;2022-07-23T11:32:38;22.59;65.27
70154;DHT22;57519;51.494;-2.626;2022-07-23T11:35:27;22.41;65.70
70154;DHT22;57519;51.494;-2.626;2022-07-23T11:38:07;22.04;66.25
70154;DHT22;57519;51.494;-2.626;2022-07-23T11:40:34;21.73;67.41
70154;DHT22;57519;51.494;-2.626;2022-07-23T11:43:03;21.68;67.61
70154;DHT22;57519;51.494;-2.626;2022-07-23T11:48:03;21.73;67.89
70154;DHT22;57519;51.494;-2.626;2022-07-23T11:50:28;21.87;67.88
70154;DHT22;57519;51.494;-2.626;2022-07-23T11:52:54;21.97;67.64
70154;DHT22;57519;51.494;-2.626;2022-07-23T11:55:20;22.28;66.94
70154;DHT22;57519;51.494;-2.626;2022-07-23T11:57:46;22.33;66.12
70154;DHT22;57519;51.494;-2.626;2022-07-23T12:00:20;22.31;66.08
70154;DHT22;57519;51.494;-2.626;2022-07-23T12:02:49;22.25;65.81
70154;DHT22;57519;51.494;-2.626;2022-07-23T12:05:20;22.35;66.34
70154;DHT22;57519;51.494;-2.626;2022-07-23T12:07:48;22.39;65.88
70154;DHT22;57519;51.494;-2.626;2022-07-23T12:15:15;21.91;66.93
70154;DHT22;57519;51.494;-2.626;2022-07-23T12:17:43;21.94;67.36
70154;DHT22;57519;51.494;-2.626;2022-07-23T12:20:12;21.91;67.35
70154;DHT22;57519;51.494;-2.626;2022-07-23T12:22:41;21.91;67.99
70154;DHT22;57519;51.494;-2.626;2022-07-23T12:27:33;21.78;67.71
70154;DHT22;57519;51.494;-2.626;2022-07-23T12:29:59;21.80;67.82
70154;DHT22;57519;51.494;-2.626;2022-07-23T12:32:26;22.05;67.95
70154;DHT22;57519;51.494;-2.626;2022-07-23T12:35:06;22.28;66.64
70154;DHT22;57519;51.494;-2.626;2022-07-23T12:37:38;22.31;65.37
70154;DHT22;57519;51.494;-2.626;2022-07-23T12:42:58;22.73;66.42
70154;DHT22;57519;51.494;-2.626;2022-07-23T12:45:25;22.97;65.05
70154;DHT22;57519;51.494;-2.626;2022-07-23T12:48:02;23.11;64.38
70154;DHT22;57519;51.494;-2.626;2022-07-23T12:50:39;23.31;64.17
70154;DHT22;57519;51.494;-2.626;2022-07-23T12:53:16;23.08;64.91
70154;DHT22;57519;51.494;-2.626;2022-07-23T12:55:43;22.87;65.35
70154;DHT22;57519;51.494;-2.626;2022-07-23T12:58:14;22.96;65.32
70154;DHT22;57519;51.494;-2.626;2022-07-23T13:00:51;22.76;66.03
70154;DHT22;57519;51.494;-2.626;2022-07-23T13:05:59;21.83;68.41
70154;DHT22;57519;51.494;-2.626;2022-07-23T13:08:27;21.74;69.54
70154;DHT22;57519;51.494;-2.626;2022-07-23T13:10:52;21.87;69.09
70154;DHT22;57519;51.494;-2.626;2022-07-23T13:13:23;22.28;68.80
70154;DHT22;57519;51.494;-2.626;2022-07-23T13:15:50;22.23;67.86
70154;DHT22;57519;51.494;-2.626;2022-07-23T13:18:16;22.42;67.77
70154;DHT22;57519;51.494;-2.626;2022-07-23T13:20:43;22.96;66.58
70154;DHT22;57519;51.494;-2.626;2022-07-23T13:23:08;23.49;65.36
70154;DHT22;57519;51.494;-2.626;2022-07-23T13:25:34;23.79;64.65
70154;DHT22;57519;51.494;-2.626;2022-07-23T13:28:00;23.93;63.90
70154;DHT22;57519;51.494;-2.626;2022-07-23T13:30:25;23.96;63.16
70154;DHT22;57519;51.494;-2.626;2022-07-23T13:32:51;23.80;63.71
70154;DHT22;57519;51.494;-2.626;2022-07-23T13:35:16;24.24;63.74
70154;DHT22;57519;51.494;-2.626;2022-07-23T13:37:42;24.20;63.25
70154;DHT22;57519;51.494;-2.626;2022-07-23T13:40:07;24.07;63.20
70154;DHT22;57519;51.494;-2.626;2022-07-23T13:42:33;23.39;64.13
70154;DHT22;57519;51.494;-2.626;2022-07-23T13:44:58;22.98;65.53
70154;DHT22;57519;51.494;-2.626;2022-07-23T13:47:24;22.77;66.22
70154;DHT22;57519;51.494;-2.626;2022-07-23T13:49:50;22.79;66.50
70154;DHT22;57519;51.494;-2.626;2022-07-23T13:52:16;22.36;67.06
70154;DHT22;57519;51.494;-2.626;2022-07-23T13:54:41;22.57;67.21
70154;DHT22;57519;51.494;-2.626;2022-07-23T13:57:07;22.60;67.05
70154;DHT22;57519;51.494;-2.626;2022-07-23T13:59:34;22.28;68.40
70154;DHT22;57519;51.494;-2.626;2022-07-23T14:02:01;22.02;69.21
70154;DHT22;57519;51.494;-2.626;2022-07-23T14:04:26;21.77;69.18
70154;DHT22;57519;51.494;-2.626;2022-07-23T14:06:52;21.67;69.97
70154;DHT22;57519;51.494;-2.626;2022-07-23T14:09:17;21.77;69.79
70154;DHT22;57519;51.494;-2.626;2022-07-23T14:11:42;21.80;69.70
70154;DHT22;57519;51.494;-2.626;2022-07-23T14:14:08;21.73;69.80
70154;DHT22;57519;51.494;-2.626;2022-07-23T14:16:33;21.63;71.17
70154;DHT22;57519;51.494;-2.626;2022-07-23T14:18:59;21.57;71.81
70154;DHT22;57519;51.494;-2.626;2022-07-23T14:21:24;21.58;71.46
70154;DHT22;57519;51.494;-2.626;2022-07-23T14:23:49;21.77;71.44
70154;DHT22;57519;51.494;-2.626;2022-07-23T14:26:15;21.97;71.15
70154;DHT22;57519;51.494;-2.626;2022-07-23T14:28:40;22.35;69.89
70154;DHT22;57519;51.494;-2.626;2022-07-23T14:31:06;22.67;68.43
70154;DHT22;57519;51.494;-2.626;2022-07-23T14:33:31;23.14;68.13
70154;DHT22;57519;51.494;-2.626;2022-07-23T14:35:57;23.35;67.23
70154;DHT22;57519;51.494;-2.626;2022-07-23T14:38:24;23.31;66.63
70154;DHT22;57519;51.494;-2.626;2022-07-23T14:40:49;23.39;66.36
70154;DHT22;57519;51.494;-2.626;2022-07-23T14:43:15;23.17;66.94
70154;DHT22;57519;51.494;-2.626;2022-07-23T14:45:40;22.91;67.70
70154;DHT22;57519;51.494;-2.626;2022-07-23T14:48:06;22.73;68.02
70154;DHT22;57519;51.494;-2.626;2022-07-23T14:50:31;22.56;68.18
70154;DHT22;57519;51.494;-2.626;2022-07-23T14:52:57;22.42;68.95
70154;DHT22;57519;51.494;-2.626;2022-07-23T14:55:22;22.32;69.02
70154;DHT22;57519;51.494;-2.626;2022-07-23T14:57:48;22.08;69.57
70154;DHT22;57519;51.494;-2.626;2022-07-23T15:00:14;21.77;70.58
70154;DHT22;57519;51.494;-2.626;2022-07-23T15:02:40;21.60;71.68
70154;DHT22;57519;51.494;-2.626;2022-07-23T15:05:05;21.54;72.70
70154;DHT22;57519;51.494;-2.626;2022-07-23T15:07:31;21.64;72.02
70154;DHT22;57519;51.494;-2.626;2022-07-23T15:09:57;22.01;71.60
70154;DHT22;57519;51.494;-2.626;2022-07-23T15:12:22;22.33;69.91
70154;DHT22;57519;51.494;-2.626;2022-07-23T15:14:48;22.80;68.60
70154;DHT22;57519;51.494;-2.626;2022-07-23T15:17:14;22.91;67.64
70154;DHT22;57519;51.494;-2.626;2022-07-23T15:19:39;22.71;67.17
70154;DHT22;57519;51.494;-2.626;2022-07-23T15:22:04;22.64;67.79
70154;DHT22;57519;51.494;-2.626;2022-07-23T15:24:30;22.70;67.78
70154;DHT22;57519;51.494;-2.626;2022-07-23T15:26:56;22.77;67.21
70154;DHT22;57519;51.494;-2.626;2022-07-23T15:29:21;22.64;66.69
70154;DHT22;57519;51.494;-2.626;2022-07-23T15:31:48;22.49;67.34
70154;DHT22;57519;51.494;-2.626;2022-07-23T15:34:14;22.38;68.06
70154;DHT22;57519;51.494;-2.626;2022-07-23T15:36:39;22.31;67.96
70154;DHT22;57519;51.494;-2.626;2022-07-23T15:39:05;22.12;67.98
70154;DHT22;57519;51.494;-2.626;2022-07-23T15:41:31;21.91;68.56
70154;DHT22;57519;51.494;-2.626;2022-07-23T15:43:57;22.00;68.91
70154;DHT22;57519;51.494;-2.626;2022-07-23T15:46:22;21.95;69.04
70154;DHT22;57519;51.494;-2.626;2022-07-23T15:48:49;21.98;69.29
70154;DHT22;57519;51.494;-2.626;2022-07-23T15:51:15;21.93;69.36
70154;DHT22;57519;51.494;-2.626;2022-07-23T15:53:41;21.80;69.84
70154;DHT22;57519;51.494;-2.626;2022-07-23T15:56:08;21.68;69.85
70154;DHT22;57519;51.494;-2.626;2022-07-23T15:58:34;21.57;69.89
70154;DHT22;57519;51.494;-2.626;2022-07-23T16:00:59;21.50;70.05